Time;durP1;ratioP1;P1;durP2;ratioP2;P2;SDS_P1;SDS_P2;PMS_P1;PMS_P2;Temp;Humidity;BMP_temperature;BMP_pressure;BME280_temperature;BME280_humidity;BME280_pressure;Samples;Min_cycle;Max_cycle;Signal;HPM_P1;HPM_P2
2023/04/23 00:06:26;;;;;;;4.80;2.17;;;;;;;15.37;43.97;100266.75;15604041;28;20037;-81
2023/04/23 00:14:00;;;;;;;5.25;2.50;;;;;;;15.75;43.69;100282.06;15644248;28;20038;-84
2023/04/23 00:21:35;;;;;;;7.78;2.38;;;;;;;15.42;43.20;100193.78;15587367;28;20050;-84
2023/04/23 00:29:08;;;;;;;8.70;3.83;;;;;;;14.91;43.74;100117.56;15569317;28;20619;-86
2023/04/23 00:36:43;;;;;;;4.43;2.63;;;;;;;15.99;43.12;100269.00;15551520;28;20072;-83
2023/04/23 00:44:16;;;;;;;9.40;3.08;;;;;;;15.73;43.89;100257.16;15565821;28;20046;-84
2023/04/23 00:51:50;;;;;;;;;;;;;;;15.86;43.69;100254.03;15549632;28;20106;-82
2023/04/23 00:59:24;;;;;;;9.05;2.75;;;;;;;15.37;47.76;100172.91;15563166;28;20257;-82
2023/04/23 01:06:59;;;;;;;5.75;2.45;;;;;;;15.03;49.09;100226.34;15597342;28;20060;-84
2023/04/23 01:14:33;;;;;;;3.53;2.03;;;;;;;14.73;49.77;100167.34;15579951;28;20116;-85
2023/04/23 01:22:10;;;;;;;5.80;2.92;;;;;;;14.87;52.01;100265.03;15561604;28;20049;-85
2023/04/23 01:29:43;;;;;;;4.13;2.47;;;;;;;14.82;52.65;100256.88;15574772;28;20157;-83
2023/04/23 01:37:18;;;;;;;3.35;1.80;;;;;;;14.28;54.52;100230.44;15569000;28;20058;-85
2023/04/23 01:44:52;;;;;;;5.40;2.40;;;;;;;14.04;59.20;100216.31;15564898;28;20038;-85
2023/04/23 01:52:27;;;;;;;3.08;1.98;;;;;;;13.92;61.17;100229.88;15577274;28;20037;-84
2023/04/23 02:00:06;;;;;;;3.60;2.72;;;;;;;14.64;61.71;100230.97;15571422;28;20060;-84
2023/04/23 02:07:47;;;;;;;4.45;2.35;;;;;;;14.48;64.31;100222.66;15584508;28;20037;-85
2023/04/23 02:15:20;;;;;;;3.58;2.25;;;;;;;14.24;65.84;100210.41;15583280;28;20038;-81
2023/04/23 02:22:56;;;;;;;4.53;3.00;;;;;;;13.81;67.77;100232.66;15586638;28;20049;-83
2023/04/23 02:30:29;;;;;;;3.78;2.25;;;;;;;13.84;66.83;100189.00;15564038;28;20264;-80
2023/04/23 02:38:03;;;;;;;5.55;3.38;;;;;;;13.69;67.23;100157.19;15524982;28;20108;-84
2023/04/23 02:45:36;;;;;;;3.97;2.33;;;;;;;14.47;65.98;100236.38;15524377;28;20580;-83
2023/04/23 02:53:11;;;;;;;5.72;2.80;;;;;;;14.44;66.58;100224.19;15520066;23;20408;-48
2023/04/23 03:01:04;;;;;;;;;;;;;;;14.43;67.30;100221.75;15486980;28;20043;-48
2023/04/23 03:08:38;;;;;;;5.03;2.35;;;;;;;14.49;66.03;100220.78;15460603;28;19921;-51
2023/04/23 03:16:11;;;;;;;7.32;2.92;;;;;;;14.48;65.42;100211.84;15488102;28;20061;-48
2023/04/23 03:23:47;;;;;;;4.32;2.63;;;;;;;14.29;66.73;100216.69;15469544;28;20460;-49
2023/04/23 03:31:20;;;;;;;4.93;3.17;;;;;;;14.31;67.36;100219.13;15471641;28;20070;-52
2023/04/23 03:38:55;;;;;;;5.32;2.80;;;;;;;14.24;67.65;100218.50;15485753;28;20574;-53
2023/04/23 03:46:28;;;;;;;6.28;3.10;;;;;;;14.34;66.72;100213.25;15500279;28;20060;-52
2023/04/23 03:54:03;;;;;;;5.65;2.42;;;;;;;14.32;64.79;100203.78;15454094;28;20050;-51
2023/04/23 04:01:58;;;;;;;3.17;2.00;;;;;;;14.42;64.55;100206.63;15468975;28;20487;-52
2023/04/23 04:09:33;;;;;;;4.38;3.08;;;;;;;13.23;70.63;100191.44;15507689;28;20061;-48
2023/04/23 04:17:08;;;;;;;3.80;2.17;;;;;;;14.20;67.66;100198.47;15490339;28;20131;-52
2023/04/23 04:24:42;;;;;;;4.25;2.83;;;;;;;14.30;68.04;100207.50;15488467;28;20038;-51
2023/04/23 04:32:15;;;;;;;5.20;2.83;;;;;;;13.46;70.84;100210.19;15486546;28;20538;-51
2023/04/23 04:39:53;;;;;;;6.07;3.45;;;;;;;13.38;72.12;100212.47;15486657;28;20046;-49
2023/04/23 04:47:26;;;;;;;6.88;2.55;;;;;;;13.88;69.28;100207.13;15495007;28;20568;-49
2023/04/23 04:55:01;;;;;;;5.00;2.88;;;;;;;14.08;68.77;100216.63;15490010;28;20047;-51
2023/04/23 05:02:34;;;;;;;5.32;2.47;;;;;;;13.63;69.22;100194.06;15479554;28;20534;-52
2023/04/23 05:10:09;;;;;;;5.30;2.38;;;;;;;13.73;69.75;100223.88;15482912;28;20065;-49
2023/04/23 05:17:42;;;;;;;5.28;2.95;;;;;;;14.19;69.57;100238.13;15461450;28;20065;-50
2023/04/23 05:25:18;;;;;;;4.05;2.22;;;;;;;14.01;69.64;100235.69;15489653;28;20622;-50
2023/04/23 05:32:51;;;;;;;6.57;2.90;;;;;;;14.13;70.37;100238.28;15489923;28;20050;-53
2023/04/23 05:40:27;;;;;;;4.43;2.47;;;;;;;13.89;71.53;100232.22;15478191;28;20045;-52
2023/04/23 05:48:00;;;;;;;3.83;2.42;;;;;;;14.56;69.27;100237.63;15474009;28;20228;-50
2023/04/23 05:55:35;;;;;;;3.28;2.28;;;;;;;14.54;69.78;100247.84;15486398;28;20061;-51
2023/04/23 06:03:08;;;;;;;3.97;2.33;;;;;;;14.85;69.32;100240.16;15487159;28;20034;-51
2023/04/23 06:10:43;;;;;;;4.43;2.58;;;;;;;14.56;71.41;100239.53;15483996;28;20039;-53
2023/04/23 06:18:16;;;;;;;4.55;2.80;;;;;;;14.60;71.24;100246.88;15482485;28;20046;-51
2023/04/23 06:25:51;;;;;;;4.30;1.92;;;;;;;14.70;71.16;100252.41;15486721;28;20050;-51
2023/04/23 06:33:24;;;;;;;4.60;2.58;;;;;;;14.69;71.17;100264.28;15467505;28;20058;-51
2023/04/23 06:40:58;;;;;;;3.33;2.25;;;;;;;13.60;74.79;100234.16;15470159;28;20043;-52
2023/04/23 06:48:32;;;;;;;4.57;2.20;;;;;;;13.97;74.44;100264.22;15484394;28;20452;-48
2023/04/23 06:56:07;;;;;;;6.05;2.17;;;;;;;13.99;74.52;100268.31;15498370;28;20496;-49
2023/04/23 07:03:43;;;;;;;3.55;1.75;;;;;;;14.15;73.64;100271.25;15481152;28;20451;-54
2023/04/23 07:11:20;;;;;;;1.63;1.27;;;;;;;14.13;72.64;100220.22;15495298;28;20050;-50
2023/04/23 07:18:56;;;;;;;3.92;2.13;;;;;;;14.02;74.06;100267.81;15488849;28;20125;-52
2023/04/23 07:26:31;;;;;;;3.08;1.77;;;;;;;14.34;72.76;100272.63;15488739;28;20050;-51
2023/04/23 07:34:06;;;;;;;5.20;2.45;;;;;;;14.57;73.29;100276.25;15480995;28;20046;-51
2023/04/23 07:41:43;;;;;;;3.10;2.05;;;;;;;14.73;71.90;100281.59;15488058;28;20121;-55
2023/04/23 07:49:18;;;;;;;2.28;1.63;;;;;;;14.53;72.57;100281.31;15495458;28;20042;-53
2023/04/23 07:57:00;;;;;;;6.80;2.30;;;;;;;14.32;74.26;100274.78;15479288;28;20066;-52
2023/04/23 08:04:35;;;;;;;4.32;2.13;;;;;;;15.02;72.47;100285.00;15487019;28;20048;-49
2023/04/23 08:12:10;;;;;;;2.00;1.25;;;;;;;15.30;71.22;100288.59;15498603;28;20069;-50
2023/04/23 08:19:43;;;;;;;2.58;1.13;;;;;;;15.38;72.41;100287.31;15486042;28;20217;-51
2023/04/23 08:27:18;;;;;;;4.72;1.45;;;;;;;15.70;70.52;100279.28;15479017;28;20112;-49
2023/04/23 08:34:51;;;;;;;2.83;1.65;;;;;;;15.82;69.80;100277.25;15493884;28;20046;-51
2023/04/23 08:42:37;;;;;;;2.08;1.27;;;;;;;16.11;68.74;100285.09;15476650;28;20047;-52
2023/04/23 08:50:11;;;;;;;3.75;1.88;;;;;;;15.00;73.95;100289.81;15498154;28;20035;-52
2023/04/23 08:57:46;;;;;;;4.53;2.00;;;;;;;14.43;75.23;100275.75;15482519;28;20069;-51
2023/04/23 09:05:19;;;;;;;4.05;1.67;;;;;;;14.63;75.01;100308.47;15494541;28;20049;-50
2023/04/23 09:12:54;;;;;;;3.28;1.52;;;;;;;14.22;74.04;100313.22;15506752;28;20053;-53
2023/04/23 09:20:27;;;;;;;2.92;1.42;;;;;;;13.72;74.61;100330.16;15497930;28;20093;-52
2023/04/23 09:28:02;;;;;;;1.48;1.27;;;;;;;13.57;74.62;100339.81;15482380;28;20391;-49
2023/04/23 09:35:35;;;;;;;1.08;0.93;;;;;;;13.18;75.94;100348.44;15495612;28;20037;-53
2023/04/23 09:43:11;;;;;;;1.42;0.88;;;;;;;12.98;74.45;100340.72;15472340;28;20503;-51
2023/04/23 09:50:44;;;;;;;1.98;1.48;;;;;;;13.20;74.94;100351.72;15493373;28;20050;-52
2023/04/23 09:58:18;;;;;;;2.00;1.33;;;;;;;13.62;73.54;100356.13;15477970;28;20195;-51
2023/04/23 10:05:54;;;;;;;1.63;1.20;;;;;;;13.58;74.67;100355.75;15484170;28;20049;-54
2023/04/23 10:13:30;;;;;;;3.53;1.98;;;;;;;13.89;74.87;100364.44;15481140;28;20486;-52
2023/04/23 10:21:03;;;;;;;5.18;2.45;;;;;;;14.63;73.13;100365.22;15483776;28;20105;-50
2023/04/23 10:28:39;;;;;;;3.83;1.73;;;;;;;14.91;71.48;100358.06;15498841;28;20077;-53
2023/04/23 10:36:12;;;;;;;2.88;1.58;;;;;;;14.65;71.46;100362.28;15495929;28;20449;-50
2023/04/23 10:43:47;;;;;;;3.47;1.83;;;;;;;14.87;69.12;100363.13;15499122;28;20034;-52
2023/04/23 10:51:20;;;;;;;6.25;2.97;;;;;;;14.35;71.15;100371.47;15500895;28;20030;-51
2023/04/23 10:58:54;;;;;;;1.88;1.38;;;;;;;13.60;71.23;100372.50;15493521;28;20050;-50
2023/04/23 11:06:54;;;;;;;2.65;1.63;;;;;;;13.71;70.64;100374.38;15489178;28;20046;-51
2023/04/23 11:14:42;;;;;;;2.92;1.35;;;;;;;13.46;70.44;100373.84;15470737;28;20042;-54
2023/04/23 11:22:18;;;;;;;1.77;1.05;;;;;;;13.23;71.71;100375.53;15494960;28;20389;-51
2023/04/23 11:29:55;;;;;;;3.30;1.90;;;;;;;13.16;68.69;100374.00;15496446;28;20085;-53
2023/04/23 11:37:28;;;;;;;2.50;1.15;;;;;;;15.28;65.19;100369.13;15497018;28;20109;-53
2023/04/23 11:45:03;;;;;;;1.05;0.77;;;;;;;15.68;60.43;100374.25;15490739;28;20515;-50
2023/04/23 11:52:36;;;;;;;1.70;0.60;;;;;;;16.70;54.80;100369.81;15497298;28;20406;-50
2023/04/23 12:00:20;;;;;;;0.85;0.30;;;;;;;16.98;55.88;100367.88;15495036;28;20038;-48
2023/04/23 12:07:53;;;;;;;0.60;0.30;;;;;;;17.93;50.86;100375.91;15490215;28;20073;-53
2023/04/23 12:15:28;;;;;;;1.65;0.40;;;;;;;18.98;44.51;100370.81;15472982;28;20039;-53
2023/04/23 12:23:04;;;;;;;0.73;0.28;;;;;;;19.86;43.18;100377.56;15497987;28;20092;-54
2023/04/23 12:30:44;;;;;;;3.10;0.85;;;;;;;18.15;46.82;100379.22;15493090;28;20042;-53
2023/04/23 12:38:25;;;;;;;1.02;0.63;;;;;;;17.81;46.31;100374.25;15476832;28;20089;-52
2023/04/23 12:45:59;;;;;;;1.20;0.40;;;;;;;19.71;43.55;100356.69;15487370;28;20038;-52
2023/04/23 12:53:34;;;;;;;1.20;0.60;;;;;;;20.94;39.70;100353.88;15492271;28;20047;-49
2023/04/23 13:01:10;;;;;;;0.70;0.45;;;;;;;20.98;42.25;100344.00;15492805;28;20046;-53
2023/04/23 13:08:44;;;;;;;1.00;0.50;;;;;;;20.60;41.76;100346.56;15479794;28;20042;-52
2023/04/23 13:16:19;;;;;;;1.00;0.43;;;;;;;19.59;45.40;100337.94;15489118;28;20064;-51
2023/04/23 13:23:52;;;;;;;0.68;0.32;;;;;;;19.20;45.02;100337.81;15487768;28;20046;-50
2023/04/23 13:31:26;;;;;;;2.25;0.70;;;;;;;21.22;41.63;100316.72;15474727;28;20495;-51
2023/04/23 13:38:59;;;;;;;2.80;0.80;;;;;;;19.92;44.24;100321.19;15495898;28;20150;-49
2023/04/23 13:46:34;;;;;;;1.88;0.70;;;;;;;19.74;44.48;100320.75;15486360;28;20038;-49
2023/04/23 13:54:07;;;;;;;1.25;0.60;;;;;;;19.39;47.41;100297.19;15461616;28;20042;-49
2023/04/23 14:01:41;;;;;;;0.70;0.63;;;;;;;19.52;45.70;100302.03;15481791;28;20440;-50
2023/04/23 14:09:14;;;;;;;2.08;0.90;;;;;;;19.23;45.73;100282.84;15471493;28;20046;-49
2023/04/23 14:16:51;;;;;;;1.58;0.73;;;;;;;18.34;46.18;100271.63;15484997;28;20047;-47
2023/04/23 14:24:32;;;;;;;1.27;0.60;;;;;;;18.24;48.98;100271.66;15519542;28;20050;-49
2023/04/23 14:32:07;;;;;;;3.90;0.68;;;;;;;18.58;46.92;100269.16;15537112;28;20116;-49
2023/04/23 14:39:40;;;;;;;0.60;0.40;;;;;;;18.43;45.81;100257.50;15542296;28;20074;-49
2023/04/23 14:47:17;;;;;;;1.95;0.88;;;;;;;18.90;45.93;100253.63;15547188;28;20149;-50
2023/04/23 14:54:52;;;;;;;3.30;0.82;;;;;;;18.44;44.28;100240.91;15551547;28;20042;-45
2023/04/23 15:02:27;;;;;;;0.82;0.43;;;;;;;18.07;46.11;100228.47;15538669;28;20320;-56
2023/04/23 15:10:05;;;;;;;2.55;0.70;;;;;;;18.15;45.65;100220.88;15526375;28;20050;-47
2023/04/23 15:17:39;;;;;;;2.25;0.88;;;;;;;18.48;46.08;100224.88;15534549;28;20153;-47
2023/04/23 15:25:12;;;;;;;1.95;0.90;;;;;;;18.04;47.17;100211.88;15551820;28;20049;-48
2023/04/23 15:32:46;;;;;;;;;;;;;;;18.31;45.71;100208.88;15583250;23;20047;-50
2023/04/23 15:40:20;;;;;;;0.65;0.35;;;;;;;18.47;45.05;100212.38;15605858;28;19929;-54
2023/04/23 15:47:57;;;;;;;1.88;0.70;;;;;;;18.22;46.24;100205.91;15522204;28;20050;-51
2023/04/23 15:55:31;;;;;;;0.70;0.50;;;;;;;18.33;45.87;100206.72;15552665;28;20469;-52
2023/04/23 16:03:06;;;;;;;0.80;0.50;;;;;;;17.58;45.90;100198.28;15520999;28;20042;-52
2023/04/23 16:10:39;;;;;;;0.82;0.30;;;;;;;18.19;46.40;100183.91;15570122;28;20395;-53
2023/04/23 16:18:13;;;;;;;1.02;0.50;;;;;;;18.34;46.13;100176.53;15550886;28;20446;-51
2023/04/23 16:25:46;;;;;;;0.70;0.45;;;;;;;18.23;47.21;100168.66;15552298;28;20430;-54
2023/04/23 16:33:22;;;;;;;1.65;0.73;;;;;;;18.08;45.09;100161.38;15511387;28;1149640;-53
2023/04/23 16:40:55;;;;;;;1.33;0.28;;;;;;;18.61;45.49;100161.78;15556671;28;20687;-53
2023/04/23 16:48:33;;;;;;;1.15;0.63;;;;;;;18.54;44.65;100151.19;15550625;28;20081;-52
2023/04/23 16:56:06;;;;;;;5.70;0.63;;;;;;;18.45;44.90;100139.28;15494207;28;20066;-52
2023/04/23 17:03:40;;;;;;;1.67;0.68;;;;;;;18.20;48.38;100140.16;15537407;28;20073;-51
2023/04/23 17:11:13;;;;;;;2.05;0.38;;;;;;;17.95;49.54;100105.75;15551008;28;20104;-50
2023/04/23 17:18:47;;;;;;;;;;;;;;;18.18;48.61;100136.91;15554546;28;20056;-53
2023/04/23 17:26:23;;;;;;;9.95;4.40;;;;;;;18.19;48.43;100132.31;15575324;28;19928;-52
2023/04/23 17:33:58;;;;;;;;;;;;;;;18.17;46.83;100112.75;15553676;28;20050;-50
2023/04/23 17:41:31;;;;;;;6.70;3.42;;;;;;;18.06;49.69;100103.81;15553089;28;19972;-52
2023/04/23 17:49:06;;;;;;;4.30;1.27;;;;;;;17.92;49.00;100102.75;15572604;28;20045;-51
2023/04/23 17:56:40;;;;;;;1.20;0.75;;;;;;;17.76;48.20;100110.91;15550366;28;20034;-52
2023/04/23 18:04:14;;;;;;;;;;;;;;;17.27;49.37;100111.44;15531217;28;20438;-53
2023/04/23 18:11:47;;;;;;;0.95;0.65;;;;;;;17.21;50.43;100111.72;15546013;28;19921;-52
2023/04/23 18:19:21;;;;;;;0.95;0.50;;;;;;;16.85;51.58;100116.22;15550713;28;20129;-52
2023/04/23 18:26:57;;;;;;;1.15;0.73;;;;;;;16.66;51.78;100113.97;15550010;28;20072;-52
2023/04/23 18:34:32;;;;;;;2.03;1.10;;;;;;;16.03;52.33;100127.47;15550264;28;20045;-52
2023/04/23 18:42:06;;;;;;;1.70;0.85;;;;;;;16.05;53.18;100122.63;15551510;28;20088;-54
2023/04/23 18:49:45;;;;;;;1.60;0.63;;;;;;;15.99;54.02;100130.97;15562886;28;20403;-52
2023/04/23 18:57:19;;;;;;;1.75;0.90;;;;;;;15.62;55.31;100133.63;15560038;28;20533;-52
2023/04/23 19:04:53;;;;;;;0.68;0.43;;;;;;;15.47;55.87;100134.31;15573046;28;20457;-52
2023/04/23 19:12:26;;;;;;;1.70;0.82;;;;;;;15.19;56.78;100140.81;15552554;28;20104;-50
2023/04/23 19:20:01;;;;;;;2.05;1.25;;;;;;;14.85;57.55;100140.19;15568440;28;20050;-52
2023/04/23 19:27:34;;;;;;;3.97;1.23;;;;;;;14.69;58.64;100126.53;15534933;28;20054;-51
2023/04/23 19:35:10;;;;;;;;;;;;;;;14.21;60.26;100117.22;15577964;28;20095;-51
2023/04/23 19:42:43;;;;;;;5.10;1.45;;;;;;;14.25;59.98;100120.25;15568382;28;19928;-53
2023/04/23 19:50:18;;;;;;;2.30;1.30;;;;;;;14.08;60.23;100109.47;15496104;28;20046;-52
2023/04/23 19:57:51;;;;;;;1.85;1.05;;;;;;;14.11;60.04;100106.28;15533473;28;20042;-54
2023/04/23 20:05:27;;;;;;;2.05;0.90;;;;;;;13.95;59.74;100112.56;15541716;28;20046;-52
2023/04/23 20:13:00;;;;;;;2.45;1.58;;;;;;;13.91;59.52;100100.63;15579393;28;20066;-52
2023/04/23 20:20:35;;;;;;;4.35;1.33;;;;;;;13.63;60.23;100101.56;15583744;28;20384;-53
2023/04/23 20:28:10;;;;;;;1.48;1.13;;;;;;;13.29;61.47;100088.06;15593743;28;20044;-51
2023/04/23 20:35:45;;;;;;;4.32;2.17;;;;;;;13.61;60.62;100079.38;15564034;28;20244;-56
2023/04/23 20:43:18;;;;;;;1.90;0.80;;;;;;;13.54;60.28;100071.47;15551381;28;20410;-55
2023/04/23 20:50:52;;;;;;;3.42;2.15;;;;;;;13.39;61.23;100069.38;15560843;28;20042;-56
2023/04/23 20:58:27;;;;;;;1.58;1.27;;;;;;;12.84;62.58;100056.53;15573157;28;20472;-52
2023/04/23 21:06:02;;;;;;;3.30;1.90;;;;;;;13.06;62.04;100040.50;15568348;28;20067;-56
2023/04/23 21:13:35;;;;;;;2.63;1.85;;;;;;;12.68;63.32;100035.75;15579471;28;20060;-52
2023/04/23 21:21:09;;;;;;;2.70;1.63;;;;;;;13.06;61.94;100018.94;15534153;28;20037;-51
2023/04/23 21:28:42;;;;;;;2.60;1.35;;;;;;;13.14;61.06;100005.03;15571925;28;20045;-53
2023/04/23 21:36:17;;;;;;;1.95;1.13;;;;;;;12.85;62.36;100017.75;15597916;23;20088;-48
2023/04/23 21:43:53;;;;;;;3.15;1.55;;;;;;;12.10;64.99;99994.56;15580076;28;20081;-55
2023/04/23 21:51:35;;;;;;;2.58;1.05;;;;;;;12.74;63.21;99997.09;15499990;28;20049;-53
2023/04/23 21:59:17;;;;;;;;;;;;;;;12.41;63.94;100004.06;15548205;28;20046;-53
2023/04/23 22:06:52;;;;;;;1.55;0.88;;;;;;;12.87;62.48;100010.28;15528529;28;19921;-53
2023/04/23 22:14:26;;;;;;;4.35;1.85;;;;;;;12.63;62.75;100014.13;15527129;28;20452;-49
2023/04/23 22:22:00;;;;;;;1.25;1.00;;;;;;;12.67;63.11;100013.41;15543120;28;20042;-52
2023/04/23 22:29:34;;;;;;;1.67;0.88;;;;;;;12.63;63.00;100009.56;15528422;28;20050;-52
2023/04/23 22:37:09;;;;;;;1.10;0.93;;;;;;;12.63;63.19;100012.25;15546616;28;20030;-49
2023/04/23 22:44:42;;;;;;;1.75;1.13;;;;;;;12.73;63.53;99990.91;15548034;28;20041;-51
2023/04/23 22:52:16;;;;;;;;;;;;;;;12.76;63.47;99970.75;15547914;28;20105;-51
2023/04/23 22:59:51;;;;;;;1.25;1.08;;;;;;;12.64;63.85;99962.75;15530732;28;20305;-51
2023/04/23 23:07:25;;;;;;;2.47;1.58;;;;;;;11.93;66.60;99953.31;15505751;28;20050;-51
2023/04/23 23:14:58;;;;;;;2.40;0.98;;;;;;;12.34;64.76;99946.84;15526533;28;20045;-49
2023/04/23 23:22:33;;;;;;;1.35;1.20;;;;;;;11.97;65.83;99935.66;15527654;28;20069;-50
2023/04/23 23:30:08;;;;;;;2.25;1.35;;;;;;;12.07;65.26;99921.56;15550839;28;20049;-53
2023/04/23 23:37:42;;;;;;;3.05;1.40;;;;;;;12.04;65.65;99914.00;15535977;28;20045;-49
2023/04/23 23:45:15;;;;;;;2.90;1.42;;;;;;;11.65;67.84;99894.91;15553401;28;20084;-51
2023/04/23 23:52:50;;;;;;;4.38;1.30;;;;;;;11.84;66.83;99888.34;15497546;28;20053;-50
